METAR Data
IDs: Format: Raw Decoded Include TAF

Data at: 0018 UTC 25 Apr 2019

METAR for:KADU (Audubon Cnty Arpt, IA, US)
Text:KADU 250015Z AUTO 00000KT 10SM CLR 22/M03 A2978 RMK AO2
Temperature: 22.0°C ( 72°F)
Dewpoint: -3.0°C ( 27°F) [RH = 19%]
Pressure (altimeter):29.78 inches Hg (1008.5 mb)
Winds:calm
Visibility:10 or more sm (16+ km)
Ceiling:at least 12,000 feet AGL
Clouds:sky clear below 12,000 feet AGL
QC Flag:automated observation with no human augmentation